Hauptseite
METAR-TAF:

METAR-TAF

Flughäfen :

Flughafen Rimini

Rimini, Italien

Breite: 44-02N, Länge: 012-37E, Höhe: 12 m

Beobachtung

Neuester Wetterbericht von vor 37 Minuten, um 04:45 UTC
Wind 8 kt aus West
Temperatur 17°C
Luftfeuchtigkeit 88%
Luftdruck 1014 hPa
Sichtweite 10 km oder mehr
Aufgelockert bewölkt in der Höhe von 3500 ft

METAR: LIPR 210445Z 28008KT 9999 SCT035 17/15 Q1014 RMK BKN BKN090 VIS MIN 9999 WIND THR31 29005KT BLU

Zeit: 07:22 (05:22 UTC)

Prognose

Neuester Wetterbericht von vor 3 Stunden und 22 Minuten, um 02:00 UTC
Gültige Prognose vom 21 um 03 UTC bis 21 um 12 UTC
Wind 5 kt aus West
Sichtweite 10 km oder mehr
Leicht bewölkt in der Höhe von 4000 ft
Wahrscheinlichkeit 30% :
Zeitweise
vom 21 um 03 UTC bis 21 um 06 UTC
Sichtweite: 4000 m
feuchter Dunst

TAF: LIPR 210200Z 2103/2112 27005KT 9999 FEW040 PROB30 TEMPO 2103/2106 4000 BR NSC

Wetterbeobachtungen und Prognosen von mehr als 4000 Flughäfen (METAR und TAF Bericht).

Die verfügbaren Stationen werden durch gelbe und rote Markierungen auf der Karte dargestellt.

Führen Sie die Maus auf sie, um den Namen der Station zu sehen.

Darauf klicken, um die Beobachtung von Wetterbeobachtungen und Prognosen zu sehen.

Um die Karte zu ändern : klicken Sie auf den grünen Tasten mit einem schwarzen Kreuz Zum Vergrößern, auf den grünen Button mit einem Gedankenstrich zu verkleinern, oder auf die grünen Pfeile für benachbarte Karten.


METAR-TAF: